TimeEST,TemperatureF,Dew PointF,Humidity,Sea Level PressureIn,VisibilityMPH,Wind Direction,Wind SpeedMPH,Gust SpeedMPH,PrecipitationIn,Events,Conditions,WindDirDegrees,DateUTC
12:53 AM,66.9,64.0,90,30.05,10.0,Calm,Calm,-,N/A,,Clear,0,2014-03-04 05:53:00
1:53 AM,64.9,63.0,93,30.03,10.0,Calm,Calm,-,N/A,,Clear,0,2014-03-04 06:53:00
2:32 AM,64.0,62.1,93,30.02,1.5,Calm,Calm,-,N/A,,Clear,0,2014-03-04 07:32:00
2:37 AM,63.0,62.1,97,30.02,0.5,Calm,Calm,-,N/A,Fog,Fog,0,2014-03-04 07:37:00
2:45 AM,64.0,62.1,93,30.02,0.2,Calm,Calm,-,N/A,Fog,Fog,0,2014-03-04 07:45:00
2:53 AM,63.0,61.0,93,30.01,0.2,Calm,Calm,-,N/A,Fog,Fog,0,2014-03-04 07:53:00
3:15 AM,64.0,62.1,93,30.01,1.0,Calm,Calm,-,N/A,,Mist,0,2014-03-04 08:15:00
3:18 AM,64.0,62.1,93,30.01,3.0,Calm,Calm,-,N/A,,Partly Cloudy,0,2014-03-04 08:18:00
3:47 AM,62.6,60.8,94,30.01,1.8,Calm,Calm,-,N/A,,Clear,0,2014-03-04 08:47:00
3:53 AM,62.1,60.1,93,30.01,1.0,Calm,Calm,-,N/A,,Mist,0,2014-03-04 08:53:00
4:00 AM,61.0,59.0,93,30.00,0.8,Calm,Calm,-,N/A,,Mist,0,2014-03-04 09:00:00
4:33 AM,61.0,59.0,93,30.01,0.2,Calm,Calm,-,N/A,Fog,Fog,0,2014-03-04 09:33:00
4:39 AM,61.0,59.0,93,30.01,0.5,Calm,Calm,-,N/A,Fog,Fog,0,2014-03-04 09:39:00
4:44 AM,61.0,60.1,97,30.01,3.0,Calm,Calm,-,N/A,,Mostly Cloudy,0,2014-03-04 09:44:00
4:53 AM,62.1,60.1,93,30.01,10.0,Calm,Calm,-,N/A,,Mostly Cloudy,0,2014-03-04 09:53:00
5:09 AM,62.1,60.1,93,30.01,10.0,Calm,Calm,-,N/A,,Scattered Clouds,0,2014-03-04 10:09:00
5:49 AM,59.0,57.2,94,30.02,1.8,Calm,Calm,-,N/A,,Partly Cloudy,0,2014-03-04 10:49:00
5:53 AM,59.0,57.0,93,30.02,1.0,Calm,Calm,-,N/A,,Mist,0,2014-03-04 10:53:00
6:01 AM,57.9,57.0,97,30.02,0.5,Calm,Calm,-,N/A,Fog,Fog,0,2014-03-04 11:01:00
6:29 AM,57.9,57.0,97,30.03,0.2,Calm,Calm,-,N/A,Fog,Fog,0,2014-03-04 11:29:00
6:53 AM,57.9,57.0,97,30.04,0.5,Calm,Calm,-,N/A,Fog,Fog,0,2014-03-04 11:53:00
7:02 AM,57.9,57.0,97,30.04,0.2,WNW,3.5,-,N/A,Fog,Fog,300,2014-03-04 12:02:00
7:45 AM,63.0,62.1,97,30.06,6.0,WNW,4.6,-,N/A,,Clear,300,2014-03-04 12:45:00
7:53 AM,64.9,63.0,93,30.06,6.0,WNW,4.6,-,N/A,,Clear,300,2014-03-04 12:53:00
8:11 AM,68.0,64.9,90,30.07,10.0,NNW,8.1,-,N/A,,Partly Cloudy,340,2014-03-04 13:11:00
8:53 AM,73.0,62.1,68,30.08,10.0,North,9.2,-,N/A,,Clear,360,2014-03-04 13:53:00
9:53 AM,77.0,59.0,54,30.08,10.0,North,6.9,-,N/A,,Clear,10,2014-03-04 14:53:00
10:53 AM,80.1,57.9,47,30.07,10.0,North,5.8,-,N/A,,Clear,10,2014-03-04 15:53:00
11:53 AM,82.0,57.0,42,30.05,10.0,NE,3.5,-,N/A,,Clear,40,2014-03-04 16:53:00
12:53 PM,82.0,57.9,44,30.02,10.0,SE,6.9,-,N/A,,Clear,130,2014-03-04 17:53:00
1:53 PM,82.0,57.0,42,30.00,10.0,SE,6.9,-,N/A,,Clear,130,2014-03-04 18:53:00
2:53 PM,82.9,57.9,42,29.99,10.0,ESE,10.4,-,N/A,,Clear,110,2014-03-04 19:53:00
3:53 PM,81.0,61.0,50,29.99,10.0,SE,10.4,-,N/A,,Clear,130,2014-03-04 20:53:00
4:53 PM,80.1,62.1,54,29.99,10.0,ESE,9.2,-,N/A,,Clear,120,2014-03-04 21:53:00
5:53 PM,78.1,64.0,62,30.00,10.0,ESE,10.4,-,N/A,,Overcast,110,2014-03-04 22:53:00
6:53 PM,75.9,64.0,67,30.01,10.0,ESE,8.1,-,N/A,,Mostly Cloudy,120,2014-03-04 23:53:00
7:53 PM,75.0,64.0,69,30.02,10.0,SE,5.8,-,N/A,,Scattered Clouds,130,2014-03-05 00:53:00
8:53 PM,75.0,64.9,71,30.04,10.0,SE,6.9,-,N/A,,Mostly Cloudy,130,2014-03-05 01:53:00
9:53 PM,73.9,64.9,73,30.04,10.0,SE,4.6,-,N/A,,Mostly Cloudy,130,2014-03-05 02:53:00
10:53 PM,73.9,64.0,71,30.04,10.0,SE,5.8,-,N/A,,Mostly Cloudy,140,2014-03-05 03:53:00
11:53 PM,73.0,63.0,71,30.04,10.0,SE,4.6,-,N/A,,Mostly Cloudy,130,2014-03-05 04:53:00